Sherman Airfield (FLV)
Ft Leavenworth, KS
Field Elevation: 772
Lat: 39°22.10N  Long: 94°54.89W
CTAF/Unicom Freq: 126.2000
   
    
Weather Advisories
11/24/2014 15:44 Z
Altimeter 29.74" Hg
Wind 290° @ 11 KT
Gusts 20 KT
Visibility 10 SM
Temperature 2° C (36° F)
Dewpoint -4° C (25° F)
Relative Humidity 63%
Density Altitude --
Condensation Altitude 3,800 feet
Wind Chill -3° C (27° F)
  Wind and Runways
Indicated Runway = 34
History
 
 
More Info
All DigiWx sites map
Weather Radar
NOAA Forecast
 
Airport IQ 5010
(K68) Garnett Municipal
(GRE) Greenville
 
about DigiWx
 
FAA Disclaimer: The data displayed is for advisory purposes only and is not to be used for flight planning or operations. For official data, please call (not available) to hear the current automated AWOS voice message.
  METAR FLV 241544Z AUTO 29011G20KT 10SM 02/M04 A2974